Wednesday, July 1, 2015, 8:53 PM EDT

KIPT, Williamsport-lycoming County

Location: Montoursville, PA, United States Lat: 41.25
Local Time: 8:53 PM EDT ( 0:53 GMT) Lon: -76.917
Time Zone: US/Eastern Elev: 528 ft

Show me the last for .
Show Decoded

2015-07-01 19:54 METAR KIPT 012354Z 25006KT 10SM FEW050 23/14 A2983 RMK AO2 SLP100 T02280144
                 10267 20228 53013 =
2015-07-01 18:54 METAR KIPT 012254Z 27010KT 10SM FEW050 25/13 A2981 =
2015-07-01 17:54 METAR KIPT 012154Z 29010G17KT 10SM FEW049 FEW060 26/14 A2979 RMK AO2 SLP085
                 T02560144 =
2015-07-01 16:54 METAR KIPT 012054Z 26012KT 10SM BKN047 BKN060 26/16 A2980 =
2015-07-01 15:54 METAR KIPT 011954Z 26013G17KT 10SM FEW060 26/16 A2980 RMK AO2 SLP088 T02610161 =
2015-07-01 14:54 METAR KIPT 011854Z 28008KT 240V310 10SM FEW043 SCT070 BKN090 25/16 A2980 RMK AO2
                 SLP087 T02500161 =
2015-07-01 13:54 METAR KIPT 011754Z 27014G18KT 10SM FEW035 FEW044 OVC075 24/16 A2981 RMK AO2
                 SLP090 T02390156 10239 20183 50003 =
2015-07-01 12:54 METAR KIPT 011654Z 26011KT 10SM FEW044 OVC055 23/16 A2981 RMK AO2 SLP091
                 T02330156 =
2015-07-01 11:54 METAR KIPT 011554Z 27010G16KT 10SM FEW033 SCT055 24/16 A2981 RMK AO2 SLP090
                 T02390161 =
2015-07-01 10:54 METAR KIPT 011454Z 28010G15KT 10SM FEW026 SCT043 22/16 A2980 RMK AO2 SLP087
                 T02220161 50003 =
2015-07-01 10:15 METAR KIPT 011415Z 26006KT 9SM FEW019 SCT030 OVC042 21/16 A2979 RMK AO2
                 T02060156 =
2015-07-01 09:54 METAR KIPT 011354Z 26007KT 9SM SCT019 OVC029 19/16 A2980 RMK AO2 SLP088
                 T01940156 =
2015-07-01 07:54 METAR KIPT 011154Z 30003KT 10SM OVC023 18/16 A2979 RMK AO2 SLP084 70057
                 T01830161 10189 20172 53001 =
2015-07-01 07:22 METAR KIPT 011122Z 27004KT 10SM BKN023 18/16 A2979 RMK AO2 T01830161 =
2015-07-01 06:54 METAR KIPT 011054Z 00000KT 6SM BR SCT021 18/16 A2978 RMK AO2 SLP082 T01780161 =
2015-07-01 05:54 METAR KIPT 010954Z AUTO 00000KT 8SM FEW022 17/16 A2978 RMK AO2 SLP080 T01720161
                 =
2015-07-01 04:54 METAR KIPT 010854Z AUTO 00000KT 10SM OVC035 18/16 A2978 RMK AO2 SLP082 T01830161
                 50001 =
2015-07-01 03:54 METAR KIPT 010754Z AUTO 00000KT 8SM FEW006 SCT024 SCT032 18/17 A2978 RMK AO2
                 SLP082 T01830172 =
2015-07-01 03:42 METAR KIPT 010742Z AUTO 00000KT 8SM SCT006 SCT018 BKN024 18/17 A2978 RMK AO2
                 T01830172 =
2015-07-01 03:25 METAR KIPT 010725Z AUTO 00000KT 9SM BKN006 18/17 A2978 RMK AO2 T01830172 =
2015-07-01 03:06 METAR KIPT 010706Z AUTO 00000KT 8SM FEW006 SCT010 BKN090 18/17 A2977 RMK AO2
                 T01830172 =
2015-07-01 02:54 METAR KIPT 010654Z AUTO 00000KT 9SM SCT005 BKN010 OVC100 18/17 A2978 RMK AO2 CIG
                 008V017 SLP081 T01830172 =
2015-07-01 02:52 METAR KIPT 010652Z AUTO 00000KT 9SM SCT005 BKN010 OVC100 18/17 A2978 RMK AO2 CIG
                 008V017 =
2015-07-01 02:41 METAR KIPT 010641Z AUTO 00000KT 10SM SCT005 SCT016 BKN100 18/17 A2978 =
2015-07-01 02:33 METAR KIPT 010633Z AUTO 00000KT 9SM SCT004 BKN011 BKN100 18/17 A2978 =
2015-07-01 01:54 METAR KIPT 010554Z AUTO 00000KT 10SM OVC004 18/17 A2978 =
2015-07-01 01:15 METAR KIPT 010515Z AUTO 00000KT 9SM BKN003 BKN009 OVC046 18/17 A2978 RMK AO2
                 T01830172 =
2015-07-01 00:17 METAR KIPT 010417Z AUTO 00000KT 10SM TS OVC007 19/18 A2981 RMK AO2 TSB11
                 T01890178 =
2015-06-30 23:54 METAR KIPT 010354Z AUTO 23003KT 10SM BKN006 19/17 A2980 RMK AO2 LTG DSNT E
                 TSE0257 SLP089 T01890172 =
2015-06-30 23:47 METAR KIPT 010347Z AUTO 28003KT 10SM VCTS BKN006 18/17 A2980 RMK AO2 LTG DSNT E
                 TSE0257 T01830172 =
2015-06-30 23:39 METAR KIPT 010339Z AUTO 29006KT 10SM VCTS SCT007 18/17 A2980 RMK AO2 LTG DSNT SE
                 TSE0257 T01830172 =
2015-06-30 23:03 METAR KIPT 010303Z AUTO 07005KT 10SM VCTS CLR 19/17 A2980 RMK AO2 LTG DSNT E
                 TSE0257 T01890172 =
2015-06-30 22:54 METAR KIPT 010254Z AUTO 00000KT 10SM FEW005 FEW041 FEW060 19/17 A2980 RMK AO2
                 LTG DSNT NE AND E RAE01 TSE27 SLP089 P0000 60044 T01890172 50007 =
2015-06-30 22:33 METAR KIPT 010233Z AUTO 12004KT 10SM FEW004 SCT045 SCT060 19/18 A2981 RMK AO2
                 LTG DSNT NE-S RAE01 TSE27 P0000 T01890178 =
2015-06-30 21:54 METAR KIPT 010154Z 00000KT 10SM -TSRA FEW006 BKN049 OVC110 19/18 A2981 =
2015-06-30 21:43 METAR KIPT 010143Z 00000KT 7SM -TSRA FEW044 BKN080 OVC100 19/18 A2980 RMK AO2
                 LTG DSNT ALQDS P0020 T01890178 =
2015-06-30 21:34 METAR KIPT 010134Z 00000KT 2SM TSRA BR FEW008 BKN060 OVC090 19/18 A2981 RMK AO2
                 LTG DSNT ALQDS P0019 T01890178 =
2015-06-30 21:15 METAR KIPT 010115Z 00000KT 5SM +TSRA BR SCT008 SCT041 OVC060 19/18 A2980 RMK AO2
                 LTG DSNT ALQDS P0002 T01890178 =
2015-06-30 20:54 METAR KIPT 010054Z 22005KT 5SM -TSRA BR FEW008 BKN029 OVC100 19/18 A2981 RMK AO2
                 PK WND 26026/0036 LTG DSNT ALQDS SLP092 P0024 T01890178 =

Support USWX by starting your Amazon purchase here.